Time;durP1;ratioP1;P1;durP2;ratioP2;P2;SDS_P1;SDS_P2;PMS_P1;PMS_P2;Temp;Humidity;BMP_temperature;BMP_pressure;BME280_temperature;BME280_humidity;BME280_pressure;Samples;Min_cycle;Max_cycle;Signal;HPM_P1;HPM_P2
2023/10/14 00:01:24;;;;;;;1.48;0.70;;;13.80;99.90;;;;;;5081225;28;20051;-47
2023/10/14 00:03:50;;;;;;;4.18;0.57;;;13.80;99.90;;;;;;5082971;28;20383;-49
2023/10/14 00:06:18;;;;;;;1.58;0.70;;;13.80;99.90;;;;;;5087372;28;20169;-50
2023/10/14 00:09:01;;;;;;;1.95;0.50;;;13.80;99.90;;;;;;5084568;28;20036;-49
2023/10/14 00:11:34;;;;;;;4.07;0.68;;;13.70;99.90;;;;;;5086682;28;20041;-48
2023/10/14 00:14:00;;;;;;;3.60;0.60;;;13.70;99.90;;;;;;5086601;28;20044;-50
2023/10/14 00:18:58;;;;;;;1.55;0.50;;;13.70;99.90;;;;;;5088190;28;20040;-47
2023/10/14 00:21:24;;;;;;;3.50;0.80;;;13.80;99.90;;;;;;5094354;28;20052;-48
2023/10/14 00:23:52;;;;;;;0.95;0.70;;;13.70;99.90;;;;;;5085366;28;20040;-46
2023/10/14 00:26:20;;;;;;;;;;;13.80;99.90;;;;;;5084984;28;20544;-46
2023/10/14 00:28:46;;;;;;;2.30;0.73;;;13.70;99.90;;;;;;5083379;28;19927;-47
2023/10/14 00:31:15;;;;;;;1.40;0.70;;;13.70;99.90;;;;;;5081128;28;20036;-46
2023/10/14 00:33:45;;;;;;;3.42;0.73;;;13.70;99.90;;;;;;5086076;28;20097;-46
2023/10/14 00:36:12;;;;;;;3.03;0.70;;;13.70;99.90;;;;;;5092962;28;20036;-46
2023/10/14 00:38:39;;;;;;;2.53;1.30;;;13.70;99.90;;;;;;5087795;28;20102;-46
2023/10/14 00:41:08;;;;;;;2.63;0.80;;;13.70;99.90;;;;;;5087044;28;20036;-48
2023/10/14 00:43:39;;;;;;;2.40;1.08;;;13.70;99.90;;;;;;5088641;28;20041;-48
2023/10/14 00:46:14;;;;;;;1.92;0.88;;;13.70;99.90;;;;;;5086429;28;20052;-49
2023/10/14 00:48:47;;;;;;;1.70;0.75;;;13.70;99.90;;;;;;5088829;28;20036;-47
2023/10/14 00:51:14;;;;;;;3.97;0.80;;;13.60;99.90;;;;;;5087144;28;20037;-51
2023/10/14 00:53:52;;;;;;;1.33;0.80;;;13.60;99.90;;;;;;5086118;28;20163;-47
2023/10/14 00:56:19;;;;;;;4.40;1.00;;;13.60;99.90;;;;;;5080033;28;20044;-47
2023/10/14 00:58:50;;;;;;;5.90;0.95;;;13.50;99.90;;;;;;5064478;28;20449;-49
2023/10/14 01:01:17;;;;;;;3.40;0.90;;;13.40;99.90;;;;;;5067858;28;20049;-46
2023/10/14 01:03:48;;;;;;;5.18;0.98;;;13.50;99.90;;;;;;5064506;28;20478;-50
2023/10/14 01:06:23;;;;;;;4.25;1.00;;;13.40;99.90;;;;;;5067055;28;20050;-48
2023/10/14 01:08:52;;;;;;;2.15;0.90;;;13.40;99.90;;;;;;5072402;28;20049;-47
2023/10/14 01:11:17;;;;;;;5.63;1.17;;;13.30;99.90;;;;;;5074012;28;20107;-47
2023/10/14 01:13:46;;;;;;;5.25;1.55;;;13.50;99.90;;;;;;5066994;28;20466;-47
2023/10/14 01:16:12;;;;;;;5.75;1.10;;;13.30;99.90;;;;;;5078298;28;20046;-47
2023/10/14 01:18:44;;;;;;;4.65;1.20;;;13.20;99.90;;;;;;5066813;28;20048;-46
2023/10/14 01:21:10;;;;;;;6.88;1.20;;;13.20;99.90;;;;;;5073596;28;20394;-46
2023/10/14 01:23:37;;;;;;;5.20;1.17;;;13.20;99.90;;;;;;5070380;28;20033;-48
2023/10/14 01:26:04;;;;;;;8.90;1.55;;;13.20;99.90;;;;;;5074362;28;20059;-49
2023/10/14 01:28:30;;;;;;;6.85;1.40;;;13.10;99.90;;;;;;5071363;28;20040;-46
2023/10/14 01:31:23;;;;;;;7.75;1.48;;;13.10;99.90;;;;;;5070106;28;20368;-47
2023/10/14 01:33:49;;;;;;;8.32;1.45;;;13.00;99.90;;;;;;5076291;28;20040;-47
2023/10/14 01:36:15;;;;;;;8.65;2.00;;;13.10;99.90;;;;;;5072134;28;20487;-47
2023/10/14 01:38:48;;;;;;;10.48;1.75;;;13.00;99.90;;;;;;5072736;28;20445;-46
2023/10/14 01:41:14;;;;;;;7.40;1.52;;;13.00;99.90;;;;;;5066432;28;20572;-49
2023/10/14 01:43:40;;;;;;;7.63;1.60;;;12.90;99.90;;;;;;5074594;28;20091;-46
2023/10/14 01:46:09;;;;;;;7.95;1.55;;;12.90;99.90;;;;;;5066793;28;20051;-45
2023/10/14 01:48:38;;;;;;;6.40;1.10;;;12.80;99.90;;;;;;5069405;28;20045;-46
2023/10/14 01:51:04;;;;;;;11.77;1.85;;;12.80;99.90;;;;;;5075596;28;20409;-46
2023/10/14 01:53:36;;;;;;;6.25;1.60;;;12.80;99.90;;;;;;5069193;28;20032;-47
2023/10/14 01:56:03;;;;;;;6.07;1.70;;;12.60;99.90;;;;;;5069411;28;20372;-46
2023/10/14 01:58:32;;;;;;;10.45;1.90;;;12.70;99.90;;;;;;5058332;28;20971;-46
2023/10/14 02:01:12;;;;;;;7.95;1.85;;;;;;;;;;5063864;28;20070;-46
2023/10/14 02:03:47;;;;;;;8.38;1.83;;;;;;;;;;5072816;28;20074;-48
2023/10/14 02:06:16;;;;;;;9.75;1.88;;;12.20;99.90;;;;;;5072911;28;20055;-46
2023/10/14 02:08:44;;;;;;;9.75;1.90;;;;;;;;;;5068503;28;20132;-47
2023/10/14 02:11:10;;;;;;;9.90;1.83;;;12.10;99.90;;;;;;5081584;28;20116;-48
2023/10/14 02:13:36;;;;;;;5.38;1.48;;;11.90;99.90;;;;;;5075129;28;20044;-47
2023/10/14 02:16:08;;;;;;;11.13;1.88;;;11.80;99.90;;;;;;5073797;28;20032;-47
2023/10/14 02:18:38;;;;;;;7.45;1.95;;;11.80;99.90;;;;;;5063430;28;20044;-46
2023/10/14 02:21:16;;;;;;;8.98;1.83;;;11.70;99.90;;;;;;5077654;28;20040;-46
2023/10/14 02:23:46;;;;;;;8.05;1.92;;;11.60;99.90;;;;;;5078971;28;20043;-49
2023/10/14 02:26:25;;;;;;;9.15;1.75;;;11.70;99.90;;;;;;5068165;28;20032;-47
2023/10/14 02:28:52;;;;;;;12.52;2.00;;;;;;;;;;5076959;28;20044;-47
2023/10/14 02:31:29;;;;;;;9.15;2.10;;;;;;;;;;5064150;28;20036;-50
2023/10/14 02:33:56;;;;;;;11.98;1.90;;;11.40;99.90;;;;;;5070981;28;20052;-49
2023/10/14 02:36:21;;;;;;;8.73;1.80;;;11.40;99.90;;;;;;5076740;28;20044;-46
2023/10/14 02:38:53;;;;;;;9.80;1.88;;;11.30;99.90;;;;;;5068577;28;20044;-47
2023/10/14 02:41:26;;;;;;;8.48;2.00;;;11.30;99.90;;;;;;5072837;28;20051;-49
2023/10/14 02:44:01;;;;;;;15.25;2.00;;;11.30;99.90;;;;;;5067767;28;20090;-47
2023/10/14 02:46:27;;;;;;;9.00;2.08;;;11.30;99.90;;;;;;5067683;28;20052;-51
2023/10/14 02:48:53;;;;;;;7.82;1.60;;;11.30;99.90;;;;;;5066879;28;20063;-48
2023/10/14 02:51:31;;;;;;;11.13;2.40;;;11.20;99.90;;;;;;5078977;28;20039;-46
2023/10/14 02:54:03;;;;;;;12.07;2.88;;;11.10;99.90;;;;;;5065776;28;20052;-47
2023/10/14 02:56:46;;;;;;;7.00;1.63;;;11.00;99.90;;;;;;5072785;28;20062;-49
2023/10/14 02:59:15;;;;;;;11.40;2.08;;;11.00;99.90;;;;;;5068697;28;20037;-49
2023/10/14 03:01:50;;;;;;;9.05;1.70;;;11.00;99.90;;;;;;5072435;28;20474;-47
2023/10/14 03:04:18;;;;;;;11.93;2.38;;;10.90;99.90;;;;;;5072927;28;20044;-47
2023/10/14 03:06:46;;;;;;;10.90;1.90;;;10.80;99.90;;;;;;5070131;28;20044;-47
2023/10/14 03:09:18;;;;;;;10.07;2.08;;;10.80;99.90;;;;;;5063924;28;20146;-49
2023/10/14 03:11:47;;;;;;;13.60;2.20;;;10.80;99.90;;;;;;5072677;28;20461;-47
2023/10/14 03:14:14;;;;;;;13.07;2.22;;;10.70;99.90;;;;;;5070618;28;20043;-49
2023/10/14 03:16:40;;;;;;;10.77;2.40;;;10.70;99.90;;;;;;5080469;28;20094;-46
2023/10/14 03:19:06;;;;;;;11.40;2.17;;;10.60;99.90;;;;;;5071195;28;20040;-47
2023/10/14 03:21:34;;;;;;;12.02;2.08;;;;;;;;;;5077981;28;20032;-48
2023/10/14 03:24:00;;;;;;;13.05;1.95;;;10.50;99.90;;;;;;5069537;28;20101;-50
2023/10/14 03:26:32;;;;;;;12.20;2.20;;;10.50;99.90;;;;;;5076049;28;20051;-48
2023/10/14 03:29:04;;;;;;;9.32;2.50;;;10.50;99.90;;;;;;5071929;28;20036;-47
2023/10/14 03:31:35;;;;;;;16.08;2.42;;;10.40;99.90;;;;;;5073155;28;20040;-47
2023/10/14 03:34:08;;;;;;;13.90;2.80;;;10.40;99.90;;;;;;5075181;28;20059;-47
2023/10/14 03:36:33;;;;;;;10.88;2.25;;;10.30;99.90;;;;;;5078584;28;20032;-48
2023/10/14 03:38:59;;;;;;;9.40;2.13;;;10.40;99.90;;;;;;5070838;28;20463;-47
2023/10/14 03:41:37;;;;;;;12.18;2.25;;;10.30;99.90;;;;;;5066619;28;20040;-47
2023/10/14 03:44:08;;;;;;;;;;;10.30;99.90;;;;;;5073417;28;20064;-50
2023/10/14 03:49:12;;;;;;;12.43;2.05;;;10.20;99.90;;;;;;5077390;28;20048;-47
2023/10/14 03:51:38;;;;;;;11.60;2.53;;;10.20;99.90;;;;;;5070594;28;20040;-48
2023/10/14 03:54:13;;;;;;;11.57;2.10;;;10.20;99.90;;;;;;5074906;28;20069;-47
2023/10/14 03:56:45;;;;;;;9.50;2.00;;;10.20;99.90;;;;;;5065989;28;20111;-47
2023/10/14 03:59:12;;;;;;;11.15;2.35;;;10.20;99.90;;;;;;5067753;28;20930;-48
2023/10/14 04:04:23;;;;;;;11.30;2.10;;;10.10;99.90;;;;;;5069175;28;20059;-50
2023/10/14 04:06:55;;;;;;;8.55;1.80;;;10.00;99.90;;;;;;5066503;28;20041;-48
2023/10/14 04:09:36;;;;;;;12.02;2.17;;;10.00;99.90;;;;;;5062344;28;20486;-48
2023/10/14 04:12:07;;;;;;;8.20;2.50;;;10.00;99.90;;;;;;5078603;28;20494;-47
2023/10/14 04:14:35;;;;;;;11.13;2.47;;;9.90;99.90;;;;;;5072797;28;20047;-47
2023/10/14 04:17:10;;;;;;;11.23;1.75;;;9.90;99.90;;;;;;5070309;28;20446;-47
2023/10/14 04:20:37;;;;;;;10.23;2.25;;;9.70;99.90;;;;;;5063834;28;20051;-47
2023/10/14 04:22:31;;;;;;;13.82;2.30;;;9.80;99.90;;;;;;5061324;28;20053;-47
2023/10/14 04:35:23;;;;;;;15.23;2.30;;;9.60;99.90;;;;;;5073893;28;20117;-47
2023/10/14 04:37:53;;;;;;;12.80;2.00;;;9.60;99.90;;;;;;5075283;28;20043;-46
2023/10/14 04:45:45;;;;;;;11.93;2.35;;;9.60;99.90;;;;;;5074475;28;20060;-46
2023/10/14 04:48:12;;;;;;;11.65;2.00;;;9.60;99.90;;;;;;5072747;28;20489;-46
2023/10/14 04:50:38;;;;;;;14.10;2.13;;;9.50;99.90;;;;;;5067878;28;20040;-47
2023/10/14 04:53:05;;;;;;;13.43;2.13;;;9.50;99.90;;;;;;5069265;28;20127;-46
2023/10/14 04:55:42;;;;;;;13.73;1.80;;;9.50;99.90;;;;;;5070402;28;20033;-47
2023/10/14 04:58:11;;;;;;;12.02;2.00;;;9.50;99.90;;;;;;5070377;28;20509;-47
2023/10/14 05:00:46;;;;;;;14.82;2.30;;;9.50;99.90;;;;;;5073641;28;20043;-47
2023/10/14 05:03:14;;;;;;;11.98;2.00;;;9.60;99.90;;;;;;5078538;28;20430;-50
2023/10/14 05:05:44;;;;;;;10.32;1.80;;;9.50;99.90;;;;;;5070609;28;20040;-50
2023/10/14 05:08:15;;;;;;;10.50;2.03;;;9.50;99.90;;;;;;5080356;28;20127;-46
2023/10/14 05:10:43;;;;;;;10.65;2.20;;;9.50;99.90;;;;;;5075971;28;20436;-48
2023/10/14 05:13:13;;;;;;;11.77;2.00;;;9.50;99.90;;;;;;5076964;28;20051;-47
2023/10/14 05:15:53;;;;;;;13.73;1.90;;;9.50;99.90;;;;;;5078855;28;20040;-49
2023/10/14 05:18:28;;;;;;;9.23;2.13;;;9.40;99.90;;;;;;5080155;28;20052;-47
2023/10/14 05:21:03;;;;;;;9.52;2.03;;;9.40;99.90;;;;;;5070041;28;20517;-47
2023/10/14 05:23:32;;;;;;;11.70;2.58;;;9.50;99.90;;;;;;5075029;28;20081;-48
2023/10/14 05:25:59;;;;;;;17.20;2.42;;;9.50;99.90;;;;;;5079056;28;20494;-47
2023/10/14 05:28:29;;;;;;;14.23;2.17;;;9.50;99.90;;;;;;5069613;28;20052;-46
2023/10/14 05:31:08;;;;;;;11.60;2.00;;;9.50;99.90;;;;;;5075597;28;20041;-50
2023/10/14 05:33:34;;;;;;;14.93;2.20;;;9.50;99.90;;;;;;5071929;28;20048;-50
2023/10/14 05:36:03;;;;;;;13.15;2.20;;;9.50;99.90;;;;;;5069398;28;20175;-48
2023/10/14 05:38:29;;;;;;;10.90;2.35;;;9.50;99.90;;;;;;5069741;28;20067;-47
2023/10/14 05:40:58;;;;;;;12.38;2.55;;;9.50;99.90;;;;;;5069176;28;20036;-47
2023/10/14 05:43:25;;;;;;;11.85;1.75;;;9.50;99.90;;;;;;5075195;28;20059;-47
2023/10/14 05:45:52;;;;;;;11.48;2.38;;;9.50;99.90;;;;;;5069680;28;20053;-48
2023/10/14 05:48:18;;;;;;;15.63;2.28;;;9.50;99.90;;;;;;5069126;28;20055;-47
2023/10/14 05:50:44;;;;;;;15.30;2.47;;;9.60;99.90;;;;;;5070608;28;20044;-47
2023/10/14 05:53:10;;;;;;;16.92;2.25;;;9.60;99.90;;;;;;5076281;28;20044;-47
2023/10/14 05:55:35;;;;;;;11.27;2.00;;;9.50;99.90;;;;;;5078957;28;20052;-47
2023/10/14 05:58:01;;;;;;;13.95;2.13;;;9.60;99.90;;;;;;5065801;28;20040;-48
2023/10/14 06:00:28;;;;;;;11.68;2.22;;;9.50;99.90;;;;;;5065779;28;20132;-46
2023/10/14 06:02:57;;;;;;;10.45;1.90;;;9.50;99.90;;;;;;5074225;28;20524;-46
2023/10/14 06:05:31;;;;;;;12.80;2.13;;;9.50;99.90;;;;;;5070506;28;20907;-46
2023/10/14 06:08:05;;;;;;;18.55;2.67;;;9.50;99.90;;;;;;5067748;28;20055;-46
2023/10/14 06:10:36;;;;;;;12.25;2.38;;;9.50;99.90;;;;;;5071676;28;20040;-46
2023/10/14 06:13:05;;;;;;;17.70;2.30;;;9.60;99.90;;;;;;5078406;28;20056;-45
2023/10/14 06:15:36;;;;;;;15.73;2.45;;;9.50;99.90;;;;;;5071015;28;20394;-48
2023/10/14 06:18:04;;;;;;;21.00;2.85;;;9.60;99.90;;;;;;5075320;28;20040;-50
2023/10/14 06:20:32;;;;;;;15.38;2.80;;;9.60;99.90;;;;;;5071973;28;20048;-50
2023/10/14 06:22:59;;;;;;;13.57;2.63;;;9.70;99.90;;;;;;5073440;28;20077;-46
2023/10/14 06:25:29;;;;;;;16.75;2.40;;;9.70;99.90;;;;;;5070035;28;20082;-49
2023/10/14 06:27:55;;;;;;;12.80;2.50;;;9.70;99.90;;;;;;5067277;28;20033;-47
2023/10/14 06:30:21;;;;;;;10.45;2.42;;;9.80;99.90;;;;;;5068008;28;20040;-48
2023/10/14 06:33:03;;;;;;;14.10;1.98;;;9.80;99.90;;;;;;5082528;28;20413;-50
2023/10/14 06:35:31;;;;;;;11.65;2.08;;;9.80;99.90;;;;;;5068320;28;20080;-47
2023/10/14 06:37:58;;;;;;;;;;;9.90;99.90;;;;;;5064080;28;20052;-48
2023/10/14 06:40:24;;;;;;;11.35;2.20;;;9.80;99.90;;;;;;5062732;28;19976;-50
2023/10/14 06:42:50;;;;;;;11.43;2.30;;;9.90;99.90;;;;;;5078376;28;20033;-47
2023/10/14 06:45:18;;;;;;;14.95;2.95;;;10.00;99.90;;;;;;5074668;28;20116;-47
2023/10/14 06:47:50;;;;;;;15.55;2.38;;;10.00;99.90;;;;;;5071276;28;20049;-48
2023/10/14 06:50:25;;;;;;;10.02;1.63;;;10.10;99.90;;;;;;5070605;28;20110;-48
2023/10/14 06:52:58;;;;;;;13.43;2.42;;;10.10;99.90;;;;;;5066842;28;20500;-47
2023/10/14 06:55:27;;;;;;;13.20;2.13;;;10.10;99.90;;;;;;5070135;28;20059;-47
2023/10/14 06:57:56;;;;;;;16.30;2.78;;;10.20;99.90;;;;;;5067169;28;20449;-47
2023/10/14 07:00:26;;;;;;;18.00;2.75;;;10.20;99.90;;;;;;5063910;28;20040;-47
2023/10/14 07:02:55;;;;;;;13.85;2.45;;;10.30;99.90;;;;;;5068239;28;20044;-47
2023/10/14 07:05:21;;;;;;;16.88;2.72;;;10.40;99.90;;;;;;5057782;28;20421;-48
2023/10/14 07:07:47;;;;;;;13.60;2.60;;;10.50;99.90;;;;;;5057972;28;20045;-47
2023/10/14 07:10:13;;;;;;;12.77;2.33;;;10.60;99.90;;;;;;5058876;28;20086;-48
2023/10/14 07:12:39;;;;;;;12.00;2.15;;;10.60;99.90;;;;;;5064654;28;20037;-47
2023/10/14 07:15:14;;;;;;;14.90;2.13;;;10.70;99.90;;;;;;5059352;28;20047;-48
2023/10/14 07:17:41;;;;;;;15.60;2.47;;;10.80;99.90;;;;;;5063640;28;20125;-47
2023/10/14 07:20:10;;;;;;;11.27;2.17;;;10.80;99.90;;;;;;5057485;28;20452;-46
2023/10/14 07:22:37;;;;;;;16.52;2.67;;;11.00;99.90;;;;;;5066814;28;20109;-46
2023/10/14 07:25:05;;;;;;;14.32;2.63;;;11.00;99.90;;;;;;5060538;28;20078;-46
2023/10/14 07:27:35;;;;;;;14.60;3.03;;;11.10;99.90;;;;;;5060261;28;20045;-46
2023/10/14 07:30:13;;;;;;;14.68;2.40;;;11.20;99.90;;;;;;5060216;28;20041;-46
2023/10/14 07:32:46;;;;;;;;;;;11.20;99.90;;;;;;5064572;28;20476;-46
2023/10/14 07:35:13;;;;;;;12.52;2.35;;;11.30;99.90;;;;;;5059973;28;19924;-46
2023/10/14 07:37:44;;;;;;;13.10;2.65;;;11.40;99.90;;;;;;5063022;28;20092;-49
2023/10/14 07:40:22;;;;;;;13.60;2.13;;;11.40;99.90;;;;;;5063927;28;20053;-47
2023/10/14 07:43:10;;;;;;;9.23;2.22;;;11.50;99.90;;;;;;5062308;28;20045;-47
2023/10/14 07:45:46;;;;;;;9.63;2.17;;;11.70;99.90;;;;;;5058866;28;20407;-47
2023/10/14 07:48:13;;;;;;;13.40;2.35;;;11.70;99.90;;;;;;5059949;28;20424;-47
2023/10/14 07:50:42;;;;;;;11.85;2.22;;;11.80;99.90;;;;;;5058145;28;20052;-48
2023/10/14 07:53:12;;;;;;;12.05;2.35;;;11.90;99.90;;;;;;5060604;28;20099;-46
2023/10/14 07:55:47;;;;;;;18.95;2.50;;;11.90;99.90;;;;;;5063270;28;20075;-47
2023/10/14 07:58:19;;;;;;;12.93;3.15;;;12.00;99.90;;;;;;5064186;28;20041;-46
2023/10/14 08:00:49;;;;;;;21.05;2.90;;;12.00;99.90;;;;;;5065846;28;20037;-49
2023/10/14 08:03:20;;;;;;;13.45;2.13;;;12.10;99.90;;;;;;5067009;28;20068;-48
2023/10/14 08:05:54;;;;;;;16.00;3.60;;;12.20;99.90;;;;;;5066329;28;20045;-47
2023/10/14 08:08:21;;;;;;;15.90;2.30;;;12.30;99.90;;;;;;5074590;28;20121;-49
2023/10/14 08:10:49;;;;;;;16.98;2.55;;;12.30;99.90;;;;;;5071428;28;20044;-50
2023/10/14 08:13:22;;;;;;;17.63;2.92;;;12.40;99.90;;;;;;5063410;28;20174;-47
2023/10/14 08:15:50;;;;;;;18.25;2.97;;;12.50;99.90;;;;;;5065347;28;20045;-47
2023/10/14 08:18:16;;;;;;;15.43;2.95;;;12.50;99.90;;;;;;5063516;28;20381;-50
2023/10/14 08:20:43;;;;;;;17.05;2.72;;;12.60;99.90;;;;;;5067527;28;20048;-47
2023/10/14 08:23:10;;;;;;;12.30;2.05;;;12.70;99.90;;;;;;5065432;28;20445;-47
2023/10/14 08:25:37;;;;;;;11.63;2.63;;;12.70;99.90;;;;;;5075300;28;20526;-47
2023/10/14 08:28:05;;;;;;;14.10;3.00;;;12.80;99.90;;;;;;5067540;28;20165;-49
2023/10/14 08:30:34;;;;;;;18.23;3.03;;;12.90;99.90;;;;;;5068167;28;20498;-47
2023/10/14 08:33:01;;;;;;;12.65;2.47;;;12.90;99.90;;;;;;5075041;28;20049;-47
2023/10/14 08:35:27;;;;;;;12.95;2.72;;;13.10;99.90;;;;;;5078143;28;20380;-47
2023/10/14 08:37:54;;;;;;;13.98;2.85;;;13.10;99.90;;;;;;5066092;28;20036;-48
2023/10/14 08:40:26;;;;;;;12.50;3.07;;;13.20;99.90;;;;;;5082634;28;20049;-50
2023/10/14 08:42:56;;;;;;;16.65;3.22;;;13.20;99.90;;;;;;5089311;28;20056;-50
2023/10/14 08:45:25;;;;;;;11.07;2.78;;;13.20;99.90;;;;;;5093285;28;20500;-47
2023/10/14 08:47:52;;;;;;;12.50;2.70;;;13.20;99.90;;;;;;5070307;28;20040;-47
2023/10/14 08:50:29;;;;;;;21.25;3.42;;;13.40;99.90;;;;;;5068030;28;20040;-47
2023/10/14 08:52:56;;;;;;;14.13;2.90;;;13.60;99.90;;;;;;5065437;28;20033;-47
2023/10/14 08:55:23;;;;;;;18.75;2.97;;;13.60;99.90;;;;;;5069798;28;20044;-47
2023/10/14 08:57:50;;;;;;;12.98;2.90;;;13.80;99.90;;;;;;5070570;28;20051;-47
2023/10/14 09:00:20;;;;;;;13.10;2.80;;;13.70;99.90;;;;;;5066500;28;20130;-47
2023/10/14 09:02:49;;;;;;;16.45;2.92;;;13.90;99.90;;;;;;5069154;28;20032;-47
2023/10/14 09:05:16;;;;;;;13.13;2.35;;;14.00;99.90;;;;;;5059148;28;20411;-48
2023/10/14 09:07:46;;;;;;;9.70;2.50;;;14.00;99.90;;;;;;5071444;28;20064;-47
2023/10/14 09:10:15;;;;;;;6.90;1.67;;;13.80;99.90;;;;;;5070162;28;20045;-49
2023/10/14 09:12:53;;;;;;;10.65;1.35;;;13.40;99.90;;;;;;5064838;28;20040;-49
2023/10/14 09:15:21;;;;;;;6.57;1.13;;;13.00;99.90;;;;;;5060715;28;20090;-47
2023/10/14 09:17:47;;;;;;;7.05;1.23;;;12.60;99.90;;;;;;5068511;28;20136;-48
2023/10/14 09:20:32;;;;;;;6.95;1.33;;;12.30;99.90;;;;;;5068261;28;20059;-48
2023/10/14 09:23:34;;;;;;;7.25;1.60;;;12.00;99.90;;;;;;5065829;28;20044;-50
2023/10/14 09:26:04;;;;;;;8.25;1.67;;;11.80;99.90;;;;;;5071003;28;20106;-48
2023/10/14 09:28:34;;;;;;;5.10;1.20;;;11.70;99.90;;;;;;5062305;28;20078;-49
2023/10/14 09:31:03;;;;;;;9.15;1.85;;;11.90;99.90;;;;;;5063580;28;20426;-50
2023/10/14 09:33:34;;;;;;;7.60;1.58;;;12.00;99.90;;;;;;5070168;28;20036;-47
2023/10/14 09:36:14;;;;;;;5.40;1.25;;;12.10;99.90;;;;;;5071919;28;20498;-49
2023/10/14 09:38:41;;;;;;;9.30;1.73;;;12.50;99.90;;;;;;5069005;28;20040;-50
2023/10/14 09:41:10;;;;;;;8.77;1.90;;;12.80;99.90;;;;;;5069507;28;20501;-47
2023/10/14 09:43:42;;;;;;;7.03;1.60;;;13.00;99.90;;;;;;5062930;28;20390;-48
2023/10/14 09:46:12;;;;;;;9.40;1.73;;;13.20;99.90;;;;;;5064221;28;20157;-47
2023/10/14 09:48:38;;;;;;;8.25;1.75;;;13.40;99.90;;;;;;5068584;28;20048;-50
2023/10/14 09:51:06;;;;;;;9.45;1.77;;;13.50;99.90;;;;;;5063809;28;20032;-50
2023/10/14 09:53:36;;;;;;;9.48;1.80;;;13.40;99.90;;;;;;5063189;28;20068;-47
2023/10/14 09:56:08;;;;;;;9.48;1.88;;;13.40;99.90;;;;;;5062498;28;20475;-47
2023/10/14 09:58:41;;;;;;;8.88;2.40;;;13.40;99.90;;;;;;5065999;28;20437;-49
2023/10/14 10:01:11;;;;;;;7.97;1.70;;;13.40;99.90;;;;;;5068569;28;20509;-47
2023/10/14 10:03:49;;;;;;;12.30;2.15;;;13.40;99.90;;;;;;5066772;28;20056;-48
2023/10/14 10:06:26;;;;;;;11.52;2.55;;;13.60;99.90;;;;;;5064435;28;20147;-48
2023/10/14 10:09:31;;;;;;;10.05;2.25;;;13.70;99.90;;;;;;5066831;28;20047;-47
2023/10/14 10:11:59;;;;;;;14.48;2.25;;;14.00;99.90;;;;;;5068541;28;20470;-47
2023/10/14 10:14:25;;;;;;;;;;;14.30;99.90;;;;;;5059178;28;20040;-48
2023/10/14 10:16:52;;;;;;;8.65;1.98;;;14.50;99.90;;;;;;5063849;28;19974;-47
2023/10/14 10:19:21;;;;;;;11.13;1.70;;;14.80;99.90;;;;;;5063015;28;20052;-47
2023/10/14 10:22:13;;;;;;;10.48;2.10;;;15.10;99.90;;;;;;5058863;28;20040;-49
2023/10/14 10:24:41;;;;;;;9.93;2.38;;;15.60;99.90;;;;;;5065806;28;20039;-48
2023/10/14 10:27:10;;;;;;;8.23;2.05;;;15.50;99.90;;;;;;5066538;28;20043;-48
2023/10/14 10:29:49;;;;;;;8.43;1.95;;;15.30;99.90;;;;;;5063334;28;20052;-48
2023/10/14 10:32:22;;;;;;;4.57;1.33;;;15.00;99.90;;;;;;5065606;28;20047;-49
2023/10/14 10:35:05;;;;;;;4.18;0.90;;;14.40;99.90;;;;;;5067039;28;20566;-49
2023/10/14 10:37:35;;;;;;;4.88;0.80;;;13.80;99.90;;;;;;5060471;28;20094;-47
2023/10/14 10:40:05;;;;;;;5.65;1.40;;;13.60;99.90;;;;;;5066495;28;20887;-48
2023/10/14 10:42:36;;;;;;;7.95;1.60;;;13.10;99.90;;;;;;5064374;28;20529;-48
2023/10/14 10:45:09;;;;;;;7.30;1.52;;;12.90;99.90;;;;;;5066860;28;20063;-47
2023/10/14 10:47:56;;;;;;;7.82;1.95;;;12.60;99.90;;;;;;5061666;28;20412;-48
2023/10/14 10:50:49;;;;;;;4.00;1.13;;;12.50;99.90;;;;;;5066875;28;20041;-46
2023/10/14 10:53:19;;;;;;;4.88;1.23;;;12.70;99.90;;;;;;5068258;28;20110;-47
2023/10/14 10:55:46;;;;;;;6.20;1.15;;;12.90;99.90;;;;;;5061012;28;20146;-48
2023/10/14 10:58:13;;;;;;;9.23;1.27;;;13.00;99.90;;;;;;5062796;28;20041;-48
2023/10/14 11:00:45;;;;;;;8.33;1.70;;;13.20;99.90;;;;;;5070079;28;20044;-49
2023/10/14 11:03:17;;;;;;;10.38;1.83;;;13.40;99.90;;;;;;5065780;28;20295;-47
2023/10/14 11:05:47;;;;;;;10.80;1.73;;;13.30;99.90;;;;;;5064120;28;20115;-50
2023/10/14 11:08:15;;;;;;;8.70;1.95;;;13.50;99.90;;;;;;5069018;28;20110;-50
2023/10/14 11:10:42;;;;;;;7.40;1.88;;;13.80;99.90;;;;;;5067276;28;20421;-47
2023/10/14 11:13:13;;;;;;;8.87;1.87;;;14.10;99.90;;;;;;5065719;28;20041;-48
2023/10/14 11:15:47;;;;;;;8.35;2.00;;;14.40;99.90;;;;;;5069561;28;20032;-50
2023/10/14 11:18:13;;;;;;;8.65;1.60;;;14.80;99.90;;;;;;5061794;28;20055;-47
2023/10/14 11:20:46;;;;;;;9.30;2.35;;;15.10;99.90;;;;;;5065031;28;20045;-49
2023/10/14 11:23:12;;;;;;;9.60;1.95;;;15.40;99.90;;;;;;5056447;28;20083;-48
2023/10/14 11:25:43;;;;;;;6.43;1.48;;;15.70;99.90;;;;;;5057837;28;20090;-47
2023/10/14 11:28:17;;;;;;;9.90;1.88;;;15.80;99.90;;;;;;5064855;28;20529;-48
2023/10/14 11:30:45;;;;;;;7.03;1.50;;;15.80;99.90;;;;;;5060530;28;20131;-51
2023/10/14 11:33:12;;;;;;;7.47;1.48;;;15.80;99.90;;;;;;5069799;28;20076;-47
2023/10/14 11:35:38;;;;;;;7.00;1.90;;;15.90;99.90;;;;;;5071389;28;20063;-47
2023/10/14 11:38:07;;;;;;;5.82;1.52;;;16.10;99.90;;;;;;5062942;28;20055;-47
2023/10/14 11:40:34;;;;;;;6.00;1.30;;;16.10;99.90;;;;;;5060075;28;20094;-49
2023/10/14 11:43:00;;;;;;;7.80;1.45;;;16.10;99.90;;;;;;5064368;28;20041;-50
2023/10/14 11:45:25;;;;;;;7.55;1.75;;;16.10;99.90;;;;;;5058283;28;20498;-49
2023/10/14 11:47:54;;;;;;;5.63;1.10;;;16.10;99.90;;;;;;5056104;28;20057;-48
2023/10/14 11:50:20;;;;;;;7.38;1.63;;;16.00;99.90;;;;;;5053771;28;20037;-51
2023/10/14 11:52:53;;;;;;;4.93;1.33;;;16.10;99.90;;;;;;5059495;28;20102;-49
2023/10/14 11:55:20;;;;;;;7.43;1.33;;;16.00;99.90;;;;;;5058944;28;20412;-47
2023/10/14 11:57:47;;;;;;;4.83;1.20;;;15.60;99.90;;;;;;5062682;28;20371;-47
2023/10/14 12:00:17;;;;;;;5.85;1.45;;;15.00;99.90;;;;;;5067379;28;20648;-47
2023/10/14 12:02:44;;;;;;;6.45;1.40;;;14.60;99.90;;;;;;5059799;28;20461;-47
2023/10/14 12:05:10;;;;;;;5.30;1.15;;;14.50;99.90;;;;;;5058899;28;20033;-48
2023/10/14 12:07:36;;;;;;;6.82;1.50;;;14.60;99.90;;;;;;5061853;28;20151;-47
2023/10/14 12:10:06;;;;;;;5.28;1.58;;;14.70;99.90;;;;;;5065897;28;20041;-50
2023/10/14 12:12:32;;;;;;;5.38;1.50;;;14.80;99.90;;;;;;5068761;28;20098;-47
2023/10/14 12:15:05;;;;;;;4.25;0.95;;;14.50;99.90;;;;;;5062916;28;20487;-46
2023/10/14 12:17:33;;;;;;;4.53;1.08;;;14.20;99.90;;;;;;5065665;28;20049;-50
2023/10/14 12:19:59;;;;;;;4.13;0.90;;;13.90;99.90;;;;;;5065467;28;20036;-48
2023/10/14 12:22:24;;;;;;;3.35;1.00;;;13.80;99.90;;;;;;5062166;28;20109;-47
2023/10/14 12:24:50;;;;;;;6.53;1.13;;;14.00;99.90;;;;;;5060356;28;20118;-48
2023/10/14 12:27:18;;;;;;;6.82;1.40;;;14.20;99.90;;;;;;5065141;28;20550;-47
2023/10/14 12:29:44;;;;;;;;;;;14.40;99.90;;;;;;5061330;28;20055;-47
2023/10/14 12:32:14;;;;;;;7.03;1.50;;;14.50;99.90;;;;;;5066558;28;19935;-48
2023/10/14 12:34:43;;;;;;;5.13;1.17;;;14.40;99.90;;;;;;5065176;28;20068;-47
2023/10/14 12:37:17;;;;;;;5.47;0.88;;;14.20;99.90;;;;;;5059904;28;20037;-49
2023/10/14 12:39:53;;;;;;;5.13;1.00;;;14.10;99.90;;;;;;5064672;28;20037;-49
2023/10/14 12:42:23;;;;;;;6.63;1.48;;;13.90;99.90;;;;;;5064219;28;20242;-48
2023/10/14 12:44:52;;;;;;;11.38;1.42;;;13.70;99.90;;;;;;5060626;28;20080;-49
2023/10/14 12:47:23;;;;;;;6.63;1.60;;;13.70;99.90;;;;;;5065576;28;20060;-48
2023/10/14 12:49:50;;;;;;;10.27;1.73;;;13.70;99.90;;;;;;5052802;28;20134;-50
2023/10/14 12:52:19;;;;;;;9.13;1.80;;;13.90;99.90;;;;;;5069804;28;20190;-48
2023/10/14 12:54:54;;;;;;;8.57;2.13;;;14.20;99.90;;;;;;5063094;28;20037;-49
2023/10/14 12:57:20;;;;;;;10.98;1.88;;;14.40;99.90;;;;;;5070510;28;20067;-47
2023/10/14 12:59:46;;;;;;;7.95;1.77;;;14.50;99.90;;;;;;5064169;28;20052;-47
2023/10/14 13:02:17;;;;;;;6.60;1.50;;;14.70;99.90;;;;;;5068780;28;20044;-47
2023/10/14 13:04:44;;;;;;;9.07;1.70;;;14.80;99.90;;;;;;5066336;28;20123;-46
2023/10/14 13:07:10;;;;;;;10.88;1.70;;;15.00;99.90;;;;;;5061821;28;20046;-49
2023/10/14 13:09:38;;;;;;;8.95;1.88;;;15.30;99.90;;;;;;5063715;28;20042;-49
2023/10/14 13:12:18;;;;;;;8.18;2.25;;;15.50;99.90;;;;;;5068347;28;20418;-46
2023/10/14 13:14:45;;;;;;;4.47;1.15;;;15.70;99.90;;;;;;5073244;28;20106;-46
2023/10/14 13:17:11;;;;;;;8.98;2.00;;;15.70;99.90;;;;;;5073802;28;20045;-47
2023/10/14 13:19:37;;;;;;;8.45;1.90;;;15.80;99.90;;;;;;5054637;28;20394;-46
2023/10/14 13:22:09;;;;;;;6.75;1.38;;;15.60;99.90;;;;;;5053504;28;20041;-46
2023/10/14 13:24:38;;;;;;;7.85;1.60;;;15.30;99.90;;;;;;5053741;28;20140;-47
2023/10/14 13:27:04;;;;;;;7.97;1.85;;;15.10;99.90;;;;;;5057062;28;20041;-47